createdAt,value
2017-12-28T00:00:14.290Z,2.74
2017-12-28T00:01:14.279Z,2.74
2017-12-28T00:02:14.224Z,2.88
2017-12-28T00:03:14.159Z,2.81
2017-12-28T00:04:14.131Z,2.85
2017-12-28T00:05:14.088Z,2.73
2017-12-28T00:06:14.028Z,2.74
2017-12-28T00:07:13.978Z,2.70
2017-12-28T00:08:13.941Z,2.76
2017-12-28T00:09:13.886Z,2.63
2017-12-28T00:10:13.853Z,2.71
2017-12-28T00:11:13.798Z,2.64
2017-12-28T00:12:13.768Z,2.63
2017-12-28T00:13:13.693Z,2.69
2017-12-28T00:14:13.663Z,2.67
2017-12-28T00:15:13.600Z,2.69
2017-12-28T00:16:13.562Z,2.63
2017-12-28T00:17:13.527Z,2.63
2017-12-28T00:18:13.467Z,2.67
2017-12-28T00:19:13.436Z,2.67
2017-12-28T00:20:13.395Z,2.71
2017-12-28T00:21:13.340Z,2.59
2017-12-28T00:22:13.307Z,2.73
2017-12-28T00:23:13.272Z,2.66
2017-12-28T00:24:13.209Z,2.73
2017-12-28T00:25:13.165Z,2.70
2017-12-28T00:26:13.123Z,2.73
2017-12-28T00:27:13.064Z,2.77
2017-12-28T00:28:13.023Z,2.64
2017-12-28T00:29:12.982Z,2.73
2017-12-28T00:30:12.931Z,2.67
2017-12-28T00:31:12.904Z,2.71
2017-12-28T00:32:12.849Z,2.73
2017-12-28T00:33:12.823Z,2.69
2017-12-28T00:34:12.787Z,2.71
2017-12-28T00:35:12.740Z,2.76
2017-12-28T00:36:12.688Z,2.82
2017-12-28T00:37:12.633Z,2.82
2017-12-28T00:38:12.589Z,2.85
2017-12-28T00:39:12.550Z,2.92
2017-12-28T00:40:12.517Z,2.84
2017-12-28T00:41:12.454Z,2.82
2017-12-28T00:42:12.443Z,2.84
2017-12-28T00:43:12.352Z,2.82
2017-12-28T00:44:12.317Z,2.82
2017-12-28T00:45:12.279Z,2.85
2017-12-28T00:46:12.227Z,2.89
2017-12-28T00:47:12.198Z,2.84
2017-12-28T00:48:12.155Z,2.91
2017-12-28T00:49:12.089Z,2.89
2017-12-28T00:50:12.070Z,2.88
2017-12-28T00:51:11.994Z,2.87
2017-12-28T00:52:11.981Z,2.84
2017-12-28T00:53:11.910Z,2.87
2017-12-28T00:54:11.896Z,2.82
2017-12-28T00:55:11.823Z,2.92
2017-12-28T00:56:11.775Z,2.91
2017-12-28T00:57:11.718Z,2.92
2017-12-28T00:58:11.687Z,2.91
2017-12-28T00:59:11.663Z,2.97
2017-12-28T01:00:11.596Z,3.05
2017-12-28T01:01:11.550Z,2.98
2017-12-28T01:02:11.502Z,2.92
2017-12-28T01:03:11.460Z,2.98
2017-12-28T01:04:11.438Z,2.89
2017-12-28T01:05:11.390Z,2.95
2017-12-28T01:06:11.328Z,2.98
2017-12-28T01:07:11.276Z,3.02
2017-12-28T01:08:11.256Z,2.95
2017-12-28T01:09:11.192Z,3.05
2017-12-28T01:10:11.144Z,3.03
2017-12-28T01:11:11.116Z,3.02
2017-12-28T01:12:11.056Z,3.05
2017-12-28T01:13:11.010Z,3.03
2017-12-28T01:14:10.967Z,3.09
2017-12-28T01:15:10.944Z,3.02
2017-12-28T01:16:10.910Z,3.03
2017-12-28T01:17:10.861Z,3.02
2017-12-28T01:18:10.810Z,3.05
2017-12-28T01:19:10.739Z,3.05
2017-12-28T01:20:10.697Z,3.06
2017-12-28T01:21:10.674Z,3.09
2017-12-28T01:22:10.662Z,3.10
2017-12-28T01:23:10.566Z,3.12
2017-12-28T01:24:10.526Z,3.06
2017-12-28T01:25:10.481Z,3.10
2017-12-28T01:26:10.446Z,3.10
2017-12-28T01:27:10.385Z,3.13
2017-12-28T01:28:10.349Z,3.15
2017-12-28T01:29:10.294Z,3.18
2017-12-28T01:30:10.296Z,3.09
2017-12-28T01:31:10.207Z,3.09
2017-12-28T01:32:10.169Z,3.12
2017-12-28T01:33:10.117Z,3.21
2017-12-28T01:34:10.084Z,3.16
2017-12-28T01:35:10.050Z,3.16
2017-12-28T01:36:09.969Z,3.10
2017-12-28T01:37:09.942Z,3.12
2017-12-28T01:38:09.899Z,3.24
2017-12-28T01:39:09.846Z,3.20
2017-12-28T01:40:09.857Z,3.16
2017-12-28T01:41:09.762Z,3.23
2017-12-28T01:42:09.735Z,3.24
2017-12-28T01:43:09.675Z,3.28
2017-12-28T01:44:09.636Z,3.20
2017-12-28T01:45:09.591Z,3.20
2017-12-28T01:46:09.567Z,3.33
2017-12-28T01:47:09.501Z,3.33
2017-12-28T01:48:09.460Z,3.31
2017-12-28T01:49:09.408Z,3.31
2017-12-28T01:50:09.370Z,3.36
2017-12-28T01:51:09.329Z,3.44
2017-12-28T01:52:09.281Z,3.52
2017-12-28T01:53:09.240Z,3.33
2017-12-28T01:54:09.192Z,3.33
2017-12-28T01:55:09.146Z,3.46
2017-12-28T01:56:09.110Z,3.34
2017-12-28T01:57:09.062Z,3.40
2017-12-28T01:58:09.024Z,3.31
2017-12-28T01:59:08.975Z,3.36
2017-12-28T02:00:08.935Z,3.33
2017-12-28T02:01:08.900Z,3.39
2017-12-28T02:02:08.843Z,3.31
2017-12-28T02:03:08.782Z,3.39
2017-12-28T02:04:08.752Z,3.31
2017-12-28T02:05:08.714Z,3.30
2017-12-28T02:06:08.677Z,3.36
2017-12-28T02:07:08.625Z,3.42
2017-12-28T02:08:08.567Z,3.42
2017-12-28T02:09:08.558Z,3.50
2017-12-28T02:10:08.505Z,3.47
2017-12-28T02:11:08.434Z,3.40
2017-12-28T02:12:08.409Z,3.39
2017-12-28T02:13:08.348Z,3.47
2017-12-28T02:14:08.303Z,3.47
2017-12-28T02:15:08.303Z,3.52
2017-12-28T02:16:08.214Z,3.44
2017-12-28T02:17:08.193Z,3.44
2017-12-28T02:18:08.133Z,3.52
2017-12-28T02:19:08.084Z,3.44
2017-12-28T02:20:08.054Z,3.47
2017-12-28T02:21:08.033Z,3.53
2017-12-28T02:22:07.962Z,3.36
2017-12-28T02:23:07.907Z,3.46
2017-12-28T02:24:07.864Z,3.36
2017-12-28T02:25:07.848Z,3.33
2017-12-28T02:26:07.793Z,3.40
2017-12-28T02:27:07.755Z,3.34
2017-12-28T02:28:07.696Z,3.33
2017-12-28T02:29:07.635Z,3.27
2017-12-28T02:30:07.597Z,3.24
2017-12-28T02:31:07.556Z,3.24
2017-12-28T02:32:07.506Z,3.23
2017-12-28T02:33:07.471Z,3.27
2017-12-28T02:34:07.421Z,3.30
2017-12-28T02:35:07.372Z,3.18
2017-12-28T02:36:07.326Z,3.28
2017-12-28T02:37:07.278Z,3.20
2017-12-28T02:38:07.239Z,3.20
2017-12-28T02:39:07.196Z,3.27
2017-12-28T02:40:07.160Z,3.30
2017-12-28T02:41:07.102Z,3.24
2017-12-28T02:42:07.075Z,3.24
2017-12-28T02:43:07.045Z,3.21
2017-12-28T02:44:06.993Z,3.27
2017-12-28T02:45:06.920Z,3.15
2017-12-28T02:46:06.881Z,3.16
2017-12-28T02:47:06.839Z,3.13
2017-12-28T02:48:06.794Z,3.24
2017-12-28T02:49:06.826Z,3.13
2017-12-28T02:50:06.707Z,3.10
2017-12-28T02:51:06.685Z,3.13
2017-12-28T02:52:06.619Z,3.13
2017-12-28T02:53:06.599Z,3.12
2017-12-28T02:54:06.530Z,3.09
2017-12-28T02:55:06.514Z,3.09
2017-12-28T02:56:06.449Z,3.12
2017-12-28T02:57:06.426Z,3.10
2017-12-28T02:58:06.353Z,3.10
2017-12-28T02:59:06.331Z,3.13
2017-12-28T03:00:06.293Z,3.12
2017-12-28T03:01:06.264Z,3.15
2017-12-28T03:02:06.180Z,3.12
2017-12-28T03:03:06.185Z,3.05
2017-12-28T03:04:06.102Z,3.13
2017-12-28T03:05:06.085Z,3.18
2017-12-28T03:06:06.012Z,3.07
2017-12-28T03:07:05.978Z,3.07
2017-12-28T03:08:05.916Z,3.05
2017-12-28T03:09:05.876Z,3.05
2017-12-28T03:10:05.825Z,3.09
2017-12-28T03:11:05.783Z,3.16
2017-12-28T03:12:05.735Z,3.13
2017-12-28T03:13:05.699Z,3.13
2017-12-28T03:14:05.645Z,3.09
2017-12-28T03:15:05.619Z,3.06
2017-12-28T03:16:05.563Z,3.09
2017-12-28T03:17:05.558Z,3.10
2017-12-28T03:18:05.485Z,3.13
2017-12-28T03:19:05.447Z,3.09
2017-12-28T03:20:05.373Z,3.12
2017-12-28T03:21:05.353Z,3.09
2017-12-28T03:22:05.313Z,3.09
2017-12-28T03:23:05.280Z,3.13
2017-12-28T03:24:05.208Z,3.09
2017-12-28T03:25:05.159Z,3.16
2017-12-28T03:26:05.132Z,3.10
2017-12-28T03:27:05.106Z,3.07
2017-12-28T03:28:05.030Z,3.12
2017-12-28T03:29:05.017Z,3.16
2017-12-28T03:30:04.929Z,3.16
2017-12-28T03:31:04.906Z,3.10
2017-12-28T03:32:04.876Z,3.09
2017-12-28T03:33:04.827Z,3.07
2017-12-28T03:34:04.765Z,3.13
2017-12-28T03:35:04.734Z,3.16
2017-12-28T03:36:04.688Z,3.10
2017-12-28T03:37:04.640Z,3.13
2017-12-28T03:38:04.590Z,3.07
2017-12-28T03:39:04.554Z,3.06
2017-12-28T03:40:04.510Z,3.10
2017-12-28T03:41:04.479Z,3.12
2017-12-28T03:42:04.436Z,3.09
2017-12-28T03:43:04.363Z,3.13
2017-12-28T03:44:04.330Z,3.20
2017-12-28T03:45:04.375Z,3.12
2017-12-28T03:46:04.248Z,3.16
2017-12-28T03:47:04.202Z,3.15
2017-12-28T03:48:04.156Z,3.16
2017-12-28T03:49:04.120Z,3.13
2017-12-28T03:50:04.072Z,3.15
2017-12-28T03:51:04.016Z,3.13
2017-12-28T03:52:03.977Z,3.12
2017-12-28T03:53:03.933Z,3.10
2017-12-28T03:54:03.916Z,3.21
2017-12-28T03:55:03.864Z,3.10
2017-12-28T03:56:03.785Z,3.10
2017-12-28T03:57:03.767Z,3.13
2017-12-28T03:58:03.719Z,3.21
2017-12-28T03:59:03.685Z,3.10
2017-12-28T04:00:03.609Z,3.09
2017-12-28T04:01:03.593Z,3.24
2017-12-28T04:02:03.530Z,3.30
2017-12-28T04:03:03.502Z,3.24
2017-12-28T04:04:03.437Z,3.27
2017-12-28T04:05:03.392Z,3.25
2017-12-28T04:06:03.361Z,3.31
2017-12-28T04:07:03.333Z,3.31
2017-12-28T04:08:03.278Z,3.46
2017-12-28T04:09:03.214Z,3.49
2017-12-28T04:10:03.185Z,3.49
2017-12-28T04:11:03.135Z,3.60
2017-12-28T04:12:03.095Z,3.49
2017-12-28T04:13:03.083Z,3.62
2017-12-28T04:14:03.001Z,3.52
2017-12-28T04:15:02.980Z,3.52
2017-12-28T04:16:02.933Z,3.58
2017-12-28T04:17:02.881Z,3.58
2017-12-28T04:18:02.823Z,3.46
2017-12-28T04:19:02.781Z,3.61
2017-12-28T04:20:02.738Z,3.62
2017-12-28T04:21:02.692Z,3.65
2017-12-28T04:22:02.624Z,3.68
2017-12-28T04:23:02.614Z,3.64
2017-12-28T04:24:02.569Z,3.62
2017-12-28T04:25:02.506Z,3.64
2017-12-28T04:26:02.487Z,3.75
2017-12-28T04:27:02.426Z,3.75
2017-12-28T04:28:02.467Z,3.68
2017-12-28T04:29:02.331Z,3.71
2017-12-28T04:30:02.297Z,3.75
2017-12-28T04:31:02.271Z,3.70
2017-12-28T04:32:02.221Z,3.72
2017-12-28T04:33:02.184Z,3.71
2017-12-28T04:34:02.107Z,3.70
2017-12-28T04:35:02.056Z,3.72
2017-12-28T04:36:02.066Z,3.70
2017-12-28T04:37:02.011Z,3.71
2017-12-28T04:38:01.956Z,3.68
2017-12-28T04:39:01.911Z,3.71
2017-12-28T04:40:01.858Z,3.72
2017-12-28T04:41:01.818Z,3.68
2017-12-28T04:42:01.751Z,3.70
2017-12-28T04:43:01.696Z,3.78
2017-12-28T04:44:01.660Z,3.72
2017-12-28T04:45:02.161Z,3.64
2017-12-28T04:46:01.603Z,3.70
2017-12-28T04:47:01.572Z,3.76
2017-12-28T04:48:01.496Z,3.70
2017-12-28T04:49:01.434Z,3.65
2017-12-28T04:50:01.431Z,3.72
2017-12-28T04:51:01.352Z,3.71
2017-12-28T04:52:01.321Z,3.71
2017-12-28T04:53:01.285Z,3.68
2017-12-28T04:54:01.237Z,3.76
2017-12-28T04:55:01.170Z,3.72
2017-12-28T04:56:01.169Z,3.68
2017-12-28T04:57:01.094Z,3.72
2017-12-28T04:58:01.056Z,3.71
2017-12-28T04:59:01.011Z,3.70
2017-12-28T05:00:00.965Z,3.65
2017-12-28T05:01:00.931Z,3.76
2017-12-28T05:02:00.895Z,3.65
2017-12-28T05:03:00.826Z,3.72
2017-12-28T05:04:00.825Z,3.78
2017-12-28T05:05:00.736Z,3.71
2017-12-28T05:06:00.708Z,3.71
2017-12-28T05:07:00.657Z,3.70
2017-12-28T05:08:00.624Z,3.75
2017-12-28T05:09:00.588Z,3.67
2017-12-28T05:10:00.510Z,3.79
2017-12-28T05:11:00.471Z,3.67
2017-12-28T05:12:00.435Z,3.76
2017-12-28T05:13:00.383Z,3.76
2017-12-28T05:14:00.351Z,3.70
2017-12-28T05:15:00.304Z,3.72
2017-12-28T05:16:00.245Z,3.78
2017-12-28T05:17:00.202Z,3.75
2017-12-28T05:18:00.153Z,3.70
2017-12-28T05:19:00.117Z,3.72
2017-12-28T05:20:00.122Z,3.75
2017-12-28T05:21:00.036Z,3.68
2017-12-28T05:21:59.993Z,3.76
2017-12-28T05:22:59.947Z,3.65
2017-12-28T05:23:59.909Z,3.65
2017-12-28T05:24:59.868Z,3.62
2017-12-28T05:25:59.833Z,3.64
2017-12-28T05:26:59.757Z,3.57
2017-12-28T05:27:59.715Z,3.67
2017-12-28T05:28:59.686Z,3.61
2017-12-28T05:29:59.643Z,3.64
2017-12-28T05:30:59.587Z,3.60
2017-12-28T05:31:59.542Z,3.64
2017-12-28T05:32:59.498Z,3.58
2017-12-28T05:33:59.476Z,3.58
2017-12-28T05:34:59.408Z,3.67
2017-12-28T05:35:59.381Z,3.61
2017-12-28T05:36:59.310Z,3.70
2017-12-28T05:37:59.301Z,3.62
2017-12-28T05:38:59.261Z,3.67
2017-12-28T05:39:59.226Z,3.57
2017-12-28T05:40:59.146Z,3.64
2017-12-28T05:41:59.121Z,3.61
2017-12-28T05:42:59.056Z,3.65
2017-12-28T05:43:59.004Z,3.52
2017-12-28T05:44:58.967Z,3.62
2017-12-28T05:45:58.955Z,3.62
2017-12-28T05:46:58.869Z,3.61
2017-12-28T05:47:58.828Z,3.53
2017-12-28T05:48:58.801Z,3.61
2017-12-28T05:49:58.741Z,3.53
2017-12-28T05:50:58.699Z,3.65
2017-12-28T05:51:58.690Z,3.50
2017-12-28T05:52:58.628Z,3.61
2017-12-28T05:53:58.602Z,3.57
2017-12-28T05:54:58.607Z,3.61
2017-12-28T05:55:58.509Z,3.54
2017-12-28T05:56:58.458Z,3.54
2017-12-28T05:57:58.396Z,3.47
2017-12-28T05:58:58.398Z,3.46
2017-12-28T05:59:58.312Z,3.52
2017-12-28T06:00:58.270Z,3.47
2017-12-28T06:01:58.208Z,3.46
2017-12-28T06:02:58.182Z,3.46
2017-12-28T06:03:58.118Z,3.43
2017-12-28T06:04:58.104Z,3.52
2017-12-28T06:05:58.043Z,3.47
2017-12-28T06:06:57.999Z,3.47
2017-12-28T06:07:57.952Z,3.44
2017-12-28T06:08:57.910Z,3.44
2017-12-28T06:09:57.896Z,3.47
2017-12-28T06:10:57.808Z,3.44
2017-12-28T06:11:57.772Z,3.36
2017-12-28T06:12:57.726Z,3.34
2017-12-28T06:13:57.676Z,3.36
2017-12-28T06:14:57.665Z,3.36
2017-12-28T06:15:57.589Z,3.36
2017-12-28T06:16:57.544Z,3.34
2017-12-28T06:17:57.536Z,3.43
2017-12-28T06:18:57.456Z,3.36
2017-12-28T06:19:57.415Z,3.47
2017-12-28T06:20:57.372Z,3.28
2017-12-28T06:21:57.326Z,3.33
2017-12-28T06:22:57.286Z,3.40
2017-12-28T06:23:57.238Z,3.30
2017-12-28T06:24:57.208Z,3.39
2017-12-28T06:25:57.158Z,3.39
2017-12-28T06:26:57.106Z,3.36
2017-12-28T06:27:57.073Z,3.30
2017-12-28T06:28:57.027Z,3.34
2017-12-28T06:29:56.981Z,3.36
2017-12-28T06:30:56.942Z,3.30
2017-12-28T06:31:56.889Z,3.30
2017-12-28T06:32:56.833Z,3.33
2017-12-28T06:33:56.814Z,3.31
2017-12-28T06:34:56.744Z,3.25
2017-12-28T06:35:56.708Z,3.31
2017-12-28T06:36:56.696Z,3.31
2017-12-28T06:37:56.625Z,3.42
2017-12-28T06:38:56.570Z,3.33
2017-12-28T06:39:56.532Z,3.34
2017-12-28T06:40:56.495Z,3.33
2017-12-28T06:41:56.439Z,3.30
2017-12-28T06:42:56.426Z,3.40
2017-12-28T06:43:56.393Z,3.39
2017-12-28T06:44:56.304Z,3.39
2017-12-28T06:45:56.281Z,3.31
2017-12-28T06:46:56.207Z,3.36
2017-12-28T06:47:57.269Z,3.30
2017-12-28T06:48:56.121Z,3.44
2017-12-28T06:49:56.125Z,3.36
2017-12-28T06:50:56.067Z,3.49
2017-12-28T06:51:56.005Z,3.46
2017-12-28T06:52:55.987Z,3.42
2017-12-28T06:53:55.909Z,3.49
2017-12-28T06:54:55.857Z,3.49
2017-12-28T06:55:55.800Z,3.53
2017-12-28T06:56:55.769Z,3.52
2017-12-28T06:57:55.753Z,3.50
2017-12-28T06:58:55.683Z,3.47
2017-12-28T06:59:55.631Z,3.46
2017-12-28T07:00:55.587Z,3.46
2017-12-28T07:01:55.565Z,3.46
2017-12-28T07:02:55.510Z,3.44
2017-12-28T07:03:55.484Z,3.47
2017-12-28T07:04:55.413Z,3.57
2017-12-28T07:05:55.394Z,3.47
2017-12-28T07:06:55.324Z,3.46
2017-12-28T07:07:55.315Z,3.58
2017-12-28T07:08:55.243Z,3.53
2017-12-28T07:09:55.221Z,3.58
2017-12-28T07:10:55.183Z,3.50
2017-12-28T07:11:55.132Z,3.54
2017-12-28T07:12:55.064Z,3.54
2017-12-28T07:13:55.017Z,3.57
2017-12-28T07:14:54.973Z,3.57
2017-12-28T07:15:54.916Z,3.50
2017-12-28T07:16:54.885Z,3.54
2017-12-28T07:17:54.835Z,3.60
2017-12-28T07:18:54.784Z,3.52
2017-12-28T07:19:54.742Z,3.57
2017-12-28T07:20:54.716Z,3.62
2017-12-28T07:21:54.657Z,3.54
2017-12-28T07:22:54.609Z,3.57
2017-12-28T07:23:54.574Z,3.52
2017-12-28T07:24:54.528Z,3.58
2017-12-28T07:25:54.480Z,3.44
2017-12-28T07:26:54.436Z,3.47
2017-12-28T07:27:54.388Z,3.49
2017-12-28T07:28:54.378Z,3.47
2017-12-28T07:29:54.320Z,3.49
2017-12-28T07:30:54.261Z,3.43
2017-12-28T07:31:54.250Z,3.50
2017-12-28T07:32:54.202Z,3.44
2017-12-28T07:33:54.118Z,3.47
2017-12-28T07:34:54.087Z,3.46
2017-12-28T07:35:54.035Z,3.31
2017-12-28T07:36:53.994Z,3.30
2017-12-28T07:37:53.939Z,3.34
2017-12-28T07:38:53.901Z,3.28
2017-12-28T07:39:53.853Z,3.34
2017-12-28T07:40:53.811Z,3.36
2017-12-28T07:41:53.752Z,3.33
2017-12-28T07:42:53.738Z,3.39
2017-12-28T07:43:53.664Z,3.34
2017-12-28T07:44:53.625Z,3.34
2017-12-28T07:45:53.616Z,3.34
2017-12-28T07:46:53.541Z,3.31
2017-12-28T07:47:53.495Z,3.28
2017-12-28T07:48:53.443Z,3.28
2017-12-28T07:49:53.407Z,3.25
2017-12-28T07:50:53.373Z,3.28
2017-12-28T07:51:53.309Z,3.24
2017-12-28T07:52:53.265Z,3.23
2017-12-28T07:53:53.221Z,3.31
2017-12-28T07:54:53.181Z,3.23
2017-12-28T07:55:53.134Z,3.25
2017-12-28T07:56:53.097Z,3.21
2017-12-28T07:57:53.090Z,3.21
2017-12-28T07:58:52.999Z,3.15
2017-12-28T07:59:52.952Z,3.20
2017-12-28T08:00:52.902Z,3.15
2017-12-28T08:01:52.858Z,3.10
2017-12-28T08:02:52.807Z,3.12
2017-12-28T08:03:52.762Z,3.15
2017-12-28T08:04:52.711Z,3.13
2017-12-28T08:05:52.693Z,3.10
2017-12-28T08:06:52.636Z,3.12
2017-12-28T08:07:52.599Z,3.12
2017-12-28T08:08:52.540Z,3.16
2017-12-28T08:09:52.492Z,3.09
2017-12-28T08:10:52.444Z,3.13
2017-12-28T08:11:52.447Z,3.23
2017-12-28T08:12:52.372Z,3.09
2017-12-28T08:13:52.337Z,3.03
2017-12-28T08:14:52.292Z,3.05
2017-12-28T08:15:52.221Z,2.98
2017-12-28T08:16:52.174Z,3.03
2017-12-28T08:17:52.139Z,3.09
2017-12-28T08:18:52.103Z,3.06
2017-12-28T08:19:52.068Z,3.05
2017-12-28T08:20:52.018Z,3.09
2017-12-28T08:21:51.960Z,2.97
2017-12-28T08:22:51.927Z,3.02
2017-12-28T08:23:51.859Z,3.05
2017-12-28T08:24:51.830Z,3.05
2017-12-28T08:25:51.779Z,3.02
2017-12-28T08:26:51.740Z,2.97
2017-12-28T08:27:51.703Z,3.09
2017-12-28T08:28:51.645Z,3.03
2017-12-28T08:29:51.601Z,2.98
2017-12-28T08:30:51.560Z,3.02
2017-12-28T08:31:51.514Z,3.02
2017-12-28T08:32:51.462Z,3.00
2017-12-28T08:33:51.415Z,3.06
2017-12-28T08:34:51.384Z,3.05
2017-12-28T08:35:51.339Z,2.98
2017-12-28T08:36:51.289Z,3.00
2017-12-28T08:37:51.240Z,3.05
2017-12-28T08:38:51.234Z,3.07
2017-12-28T08:39:51.151Z,2.98
2017-12-28T08:40:51.110Z,3.06
2017-12-28T08:41:51.061Z,3.10
2017-12-28T08:42:51.017Z,3.06
2017-12-28T08:43:50.964Z,3.06
2017-12-28T08:44:50.922Z,3.05
2017-12-28T08:45:50.888Z,3.09
2017-12-28T08:46:50.840Z,3.06
2017-12-28T08:47:50.782Z,3.10
2017-12-28T08:48:50.742Z,3.15
2017-12-28T08:49:50.698Z,3.06
2017-12-28T08:50:50.669Z,3.10
2017-12-28T08:51:50.607Z,3.23
2017-12-28T08:52:50.593Z,3.09
2017-12-28T08:53:50.525Z,3.13
2017-12-28T08:54:50.494Z,3.15
2017-12-28T08:55:50.434Z,3.24
2017-12-28T08:56:50.398Z,3.21
2017-12-28T08:57:50.353Z,3.21
2017-12-28T08:58:50.293Z,3.30
2017-12-28T08:59:50.255Z,3.24
2017-12-28T09:00:50.198Z,3.30
2017-12-28T09:01:50.171Z,3.36
2017-12-28T09:02:50.117Z,3.47
2017-12-28T09:03:50.080Z,3.28
2017-12-28T09:04:50.022Z,3.36
2017-12-28T09:05:49.985Z,3.36
2017-12-28T09:06:49.942Z,3.44
2017-12-28T09:07:49.893Z,3.46
2017-12-28T09:08:49.843Z,3.43
2017-12-28T09:09:49.857Z,3.58
2017-12-28T09:10:49.756Z,3.58
2017-12-28T09:11:49.826Z,3.57
2017-12-28T09:12:49.678Z,3.54
2017-12-28T09:13:49.625Z,3.52
2017-12-28T09:14:49.662Z,3.65
2017-12-28T09:15:49.571Z,3.60
2017-12-28T09:16:49.493Z,3.53
2017-12-28T09:17:49.435Z,3.65
2017-12-28T09:18:49.406Z,3.72
2017-12-28T09:19:49.383Z,3.72
2017-12-28T09:20:49.345Z,3.67
2017-12-28T09:21:49.274Z,3.71
2017-12-28T09:22:49.231Z,3.64
2017-12-28T09:23:49.213Z,3.71
2017-12-28T09:24:49.163Z,3.71
2017-12-28T09:25:49.116Z,3.72
2017-12-28T09:26:49.047Z,3.62
2017-12-28T09:27:49.107Z,3.67
2017-12-28T09:28:48.968Z,3.54
2017-12-28T09:29:48.929Z,3.65
2017-12-28T09:30:48.882Z,3.68
2017-12-28T09:31:48.846Z,3.70
2017-12-28T09:32:48.786Z,3.65
2017-12-28T09:33:48.765Z,3.49
2017-12-28T09:34:48.701Z,3.53
2017-12-28T09:35:48.655Z,3.70
2017-12-28T09:36:48.610Z,3.64
2017-12-28T09:37:48.573Z,3.61
2017-12-28T09:38:48.512Z,3.64
2017-12-28T09:39:48.469Z,3.54
2017-12-28T09:40:48.425Z,3.57
2017-12-28T09:41:48.390Z,3.64
2017-12-28T09:42:48.342Z,3.68
2017-12-28T09:43:48.340Z,3.58
2017-12-28T09:44:48.256Z,3.64
2017-12-28T09:45:48.213Z,3.64
2017-12-28T09:46:48.192Z,3.62
2017-12-28T09:47:48.129Z,3.49
2017-12-28T09:48:48.073Z,3.53
2017-12-28T09:49:48.046Z,3.67
2017-12-28T09:50:47.987Z,3.72
2017-12-28T09:51:47.955Z,3.67
2017-12-28T09:52:47.940Z,3.60
2017-12-28T09:53:47.857Z,3.52
2017-12-28T09:54:47.827Z,3.57
2017-12-28T09:55:47.772Z,3.64
2017-12-28T09:56:47.732Z,3.65
2017-12-28T09:57:47.687Z,3.76
2017-12-28T09:58:47.627Z,3.75
2017-12-28T09:59:47.648Z,3.79
2017-12-28T10:00:47.595Z,3.65
2017-12-28T10:01:47.511Z,3.71
2017-12-28T10:02:47.462Z,3.76
2017-12-28T10:03:47.417Z,3.71
2017-12-28T10:04:47.381Z,3.76
2017-12-28T10:05:47.328Z,3.72
2017-12-28T10:06:47.299Z,3.76
2017-12-28T10:07:47.281Z,3.65
2017-12-28T10:08:47.202Z,3.70
2017-12-28T10:09:47.150Z,3.72
2017-12-28T10:10:47.130Z,3.62
2017-12-28T10:11:47.172Z,3.67
2017-12-28T10:12:47.019Z,3.53
2017-12-28T10:13:46.979Z,3.62
2017-12-28T10:14:46.935Z,3.49
2017-12-28T10:15:46.891Z,3.61
2017-12-28T10:16:46.871Z,3.52
2017-12-28T10:17:46.809Z,3.64
2017-12-28T10:18:46.754Z,3.67
2017-12-28T10:19:46.724Z,3.76
2017-12-28T10:20:46.680Z,3.71
2017-12-28T10:21:46.665Z,3.60
2017-12-28T10:22:46.622Z,3.78
2017-12-28T10:23:46.605Z,3.85
2017-12-28T10:24:46.557Z,3.92
2017-12-28T10:25:46.447Z,3.98
2017-12-28T10:26:46.402Z,3.90
2017-12-28T10:27:46.373Z,3.82
2017-12-28T10:28:46.312Z,3.78
2017-12-28T10:29:46.305Z,3.83
2017-12-28T10:30:46.230Z,3.80
2017-12-28T10:31:46.179Z,3.70
2017-12-28T10:32:46.140Z,3.80
2017-12-28T10:33:46.088Z,3.83
2017-12-28T10:34:46.045Z,3.83
2017-12-28T10:35:46.046Z,3.76
2017-12-28T10:36:45.960Z,3.68
2017-12-28T10:37:45.937Z,3.88
2017-12-28T10:38:45.906Z,3.80
2017-12-28T10:39:45.890Z,3.80
2017-12-28T10:40:45.795Z,3.85
2017-12-28T10:41:45.876Z,3.79
2017-12-28T10:42:45.750Z,3.86
2017-12-28T10:43:45.740Z,3.82
2017-12-28T10:44:45.632Z,3.68
2017-12-28T10:45:45.593Z,3.86
2017-12-28T10:46:45.538Z,3.79
2017-12-28T10:47:45.490Z,3.75
2017-12-28T10:48:45.459Z,3.70
2017-12-28T10:49:45.392Z,3.67
2017-12-28T10:50:45.353Z,3.71
2017-12-28T10:51:45.292Z,3.71
2017-12-28T10:52:45.256Z,3.70
2017-12-28T10:53:45.208Z,3.78
2017-12-28T10:54:45.174Z,3.71
2017-12-28T10:55:45.133Z,3.71
2017-12-28T10:56:45.078Z,3.76
2017-12-28T10:57:45.063Z,3.75
2017-12-28T10:58:45.032Z,3.68
2017-12-28T10:59:44.963Z,3.79
2017-12-28T11:00:44.937Z,3.78
2017-12-28T11:01:44.866Z,3.80
2017-12-28T11:02:44.831Z,3.79
2017-12-28T11:03:44.813Z,3.94
2017-12-28T11:04:44.732Z,3.98
2017-12-28T11:05:44.722Z,3.96
2017-12-28T11:06:44.652Z,4.00
2017-12-28T11:07:44.618Z,3.98
2017-12-28T11:08:44.551Z,4.06
2017-12-28T11:09:44.522Z,4.14
2017-12-28T11:10:44.480Z,4.03
2017-12-28T11:11:44.440Z,4.01
2017-12-28T11:12:44.388Z,4.04
2017-12-28T11:13:44.334Z,4.04
2017-12-28T11:14:44.283Z,4.18
2017-12-28T11:15:44.261Z,4.16
2017-12-28T11:16:44.212Z,4.22
2017-12-28T11:17:44.202Z,4.16
2017-12-28T11:18:44.125Z,4.14
2017-12-28T11:19:44.087Z,4.12
2017-12-28T11:20:44.044Z,4.08
2017-12-28T11:21:43.998Z,4.24
2017-12-28T11:22:43.945Z,4.28
2017-12-28T11:23:43.915Z,4.29
2017-12-28T11:24:43.869Z,4.28
2017-12-28T11:25:43.808Z,4.18
2017-12-28T11:26:43.780Z,4.26
2017-12-28T11:27:43.771Z,4.29
2017-12-28T11:28:43.702Z,4.16
2017-12-28T11:29:43.636Z,4.22
2017-12-28T11:30:43.603Z,4.42
2017-12-28T11:31:43.593Z,4.43
2017-12-28T11:32:43.527Z,4.34
2017-12-28T11:33:43.479Z,4.37
2017-12-28T11:34:43.428Z,4.40
2017-12-28T11:35:43.404Z,4.28
2017-12-28T11:36:43.343Z,4.25
2017-12-28T11:37:43.297Z,4.26
2017-12-28T11:38:43.259Z,4.21
2017-12-28T11:39:43.224Z,4.15
2017-12-28T11:40:43.181Z,4.28
2017-12-28T11:41:43.129Z,4.29
2017-12-28T11:42:43.101Z,4.33
2017-12-28T11:43:43.028Z,4.33
2017-12-28T11:44:43.021Z,4.32
2017-12-28T11:45:42.973Z,4.32
2017-12-28T11:46:42.935Z,4.36
2017-12-28T11:47:42.875Z,4.42
2017-12-28T11:48:42.849Z,4.32
2017-12-28T11:49:42.784Z,4.25
2017-12-28T11:50:42.739Z,4.26
2017-12-28T11:51:42.713Z,4.36
2017-12-28T11:52:42.696Z,4.32
2017-12-28T11:53:42.629Z,4.26
2017-12-28T11:54:42.577Z,4.25
2017-12-28T11:55:42.522Z,4.24
2017-12-28T11:56:42.473Z,4.18
2017-12-28T11:57:42.446Z,4.04
2017-12-28T11:58:42.405Z,4.04
2017-12-28T11:59:42.356Z,4.16
2017-12-28T12:00:42.328Z,4.16
2017-12-28T12:01:42.286Z,4.16
2017-12-28T12:02:42.224Z,4.12
2017-12-28T12:03:42.171Z,4.25
2017-12-28T12:04:42.127Z,4.26
2017-12-28T12:05:42.105Z,4.24
2017-12-28T12:06:42.096Z,4.29
2017-12-28T12:07:42.014Z,4.25
2017-12-28T12:08:41.992Z,4.26
2017-12-28T12:09:41.966Z,4.21
2017-12-28T12:10:41.940Z,4.25
2017-12-28T12:11:41.895Z,4.33
2017-12-28T12:12:41.804Z,4.43
2017-12-28T12:13:41.744Z,4.26
2017-12-28T12:14:41.711Z,4.29
2017-12-28T12:15:41.656Z,4.25
2017-12-28T12:16:41.638Z,4.16
2017-12-28T12:17:41.575Z,4.29
2017-12-28T12:18:41.541Z,4.24
2017-12-28T12:19:41.501Z,4.39
2017-12-28T12:20:41.452Z,4.34
2017-12-28T12:21:41.396Z,4.42
2017-12-28T12:22:41.356Z,4.26
2017-12-28T12:23:41.307Z,4.33
2017-12-28T12:24:41.258Z,4.28
2017-12-28T12:25:41.218Z,4.39
2017-12-28T12:26:41.172Z,4.44
2017-12-28T12:27:41.142Z,4.44
2017-12-28T12:28:41.096Z,4.46
2017-12-28T12:29:41.077Z,4.37
2017-12-28T12:30:41.014Z,4.28
2017-12-28T12:31:40.972Z,4.12
2017-12-28T12:32:40.945Z,4.19
2017-12-28T12:33:40.883Z,4.01
2017-12-28T12:34:40.834Z,3.94
2017-12-28T12:35:40.795Z,3.97
2017-12-28T12:36:40.737Z,3.83
2017-12-28T12:37:40.703Z,3.82
2017-12-28T12:38:40.683Z,3.94
2017-12-28T12:39:40.619Z,3.92
2017-12-28T12:40:40.570Z,3.96
2017-12-28T12:41:40.533Z,3.96
2017-12-28T12:42:40.499Z,3.79
2017-12-28T12:43:40.456Z,3.83
2017-12-28T12:44:40.419Z,3.86
2017-12-28T12:45:40.626Z,3.89
2017-12-28T12:46:40.318Z,3.83
2017-12-28T12:47:40.290Z,3.98
2017-12-28T12:48:40.234Z,4.03
2017-12-28T12:49:40.181Z,3.97
2017-12-28T12:50:40.129Z,3.92
2017-12-28T12:51:40.095Z,3.96
2017-12-28T12:52:40.042Z,4.00
2017-12-28T12:53:40.009Z,4.03
2017-12-28T12:54:39.962Z,3.92
2017-12-28T12:55:39.913Z,4.00
2017-12-28T12:56:39.878Z,3.94
2017-12-28T12:57:39.836Z,4.00
2017-12-28T12:58:39.837Z,3.92
2017-12-28T12:59:39.742Z,4.03
2017-12-28T13:00:39.697Z,3.98
2017-12-28T13:01:39.668Z,4.01
2017-12-28T13:02:39.625Z,4.03
2017-12-28T13:03:39.596Z,4.03
2017-12-28T13:04:39.548Z,4.03
2017-12-28T13:05:39.486Z,3.97
2017-12-28T13:06:39.447Z,3.97
2017-12-28T13:07:39.395Z,4.14
2017-12-28T13:08:39.386Z,4.04
2017-12-28T13:09:39.313Z,3.98
2017-12-28T13:10:39.258Z,3.98
2017-12-28T13:11:39.236Z,4.01
2017-12-28T13:12:39.180Z,4.07
2017-12-28T13:13:39.141Z,4.21
2017-12-28T13:14:39.092Z,4.15
2017-12-28T13:15:39.068Z,4.14
2017-12-28T13:16:39.008Z,4.18
2017-12-28T13:17:39.066Z,4.08